Time;durP1;ratioP1;P1;durP2;ratioP2;P2;SDS_P1;SDS_P2;PMS_P1;PMS_P2;Temp;Humidity;BMP_temperature;BMP_pressure;BME280_temperature;BME280_humidity;BME280_pressure;Samples;Min_cycle;Max_cycle;Signal;HPM_P1;HPM_P2
2021/08/26 00:07:30;;;;;;;31.70;6.28;;;14.90;99.90;;;;;;6189638;23;20397;-88
2021/08/26 00:09:56;;;;;;;25.83;6.18;;;14.90;99.90;;;;;;6190095;23;20027;-87
2021/08/26 00:12:22;;;;;;;27.50;4.97;;;14.90;99.90;;;;;;6190025;23;20179;-87
2021/08/26 00:14:47;;;;;;;25.25;5.05;;;14.90;99.90;;;;;;6211026;23;20452;-88
2021/08/26 00:17:14;;;;;;;24.88;4.68;;;14.80;99.90;;;;;;6158809;23;20115;-87
2021/08/26 00:19:41;;;;;;;25.02;5.80;;;14.80;99.90;;;;;;6160829;23;20019;-88
2021/08/26 00:22:07;;;;;;;29.58;5.32;;;14.80;99.90;;;;;;6186834;23;20024;-87
2021/08/26 00:24:33;;;;;;;25.73;5.05;;;14.80;99.90;;;;;;6159118;23;20109;-85
2021/08/26 00:26:58;;;;;;;30.58;5.60;;;14.80;99.90;;;;;;6184276;23;20356;-84
2021/08/26 00:29:24;;;;;;;31.42;5.18;;;14.80;99.90;;;;;;6184752;23;20028;-84
2021/08/26 00:31:50;;;;;;;24.67;5.30;;;14.80;99.90;;;;;;6184728;23;20027;-84
2021/08/26 00:34:15;;;;;;;23.17;4.35;;;14.80;99.90;;;;;;6158781;23;20020;-83
2021/08/26 00:36:41;;;;;;;23.65;4.32;;;14.80;99.90;;;;;;6159614;23;20044;-85
2021/08/26 00:39:07;;;;;;;24.48;4.75;;;14.70;99.90;;;;;;6160088;23;20095;-84
2021/08/26 00:41:32;;;;;;;21.27;5.10;;;14.80;99.90;;;;;;6159158;23;20020;-85
2021/08/26 00:44:00;;;;;;;21.75;5.45;;;14.80;99.90;;;;;;6237245;23;20123;-83
2021/08/26 00:46:26;;;;;;;22.30;4.57;;;14.70;99.90;;;;;;6191450;23;20138;-84
2021/08/26 00:48:51;;;;;;;29.25;5.15;;;14.80;99.90;;;;;;6162764;23;20107;-85
2021/08/26 00:51:17;;;;;;;28.05;5.03;;;14.80;99.90;;;;;;6187238;23;20023;-85
2021/08/26 00:53:44;;;;;;;25.48;5.10;;;14.70;99.90;;;;;;6160773;23;20475;-86
2021/08/26 00:56:15;;;;;;;34.65;5.70;;;14.70;99.90;;;;;;6185515;23;20544;-86
2021/08/26 00:58:46;;;;;;;21.20;4.45;;;14.70;99.90;;;;;;6184626;23;20012;-86
2021/08/26 01:01:12;;;;;;;23.23;4.32;;;14.70;99.90;;;;;;6184980;23;20070;-86
2021/08/26 01:03:46;;;;;;;21.27;4.88;;;14.70;99.90;;;;;;6184957;23;20070;-87
2021/08/26 01:06:32;;;;;;;22.33;5.03;;;14.70;99.90;;;;;;6209874;23;20016;-86
2021/08/26 01:09:09;;;;;;;22.70;4.97;;;14.70;99.90;;;;;;6235778;23;20012;-85
2021/08/26 01:11:41;;;;;;;23.10;5.40;;;14.70;99.90;;;;;;6185109;23;20012;-86
2021/08/26 01:14:10;;;;;;;22.83;4.47;;;14.70;99.90;;;;;;6185063;23;20008;-86
2021/08/26 01:16:40;;;;;;;21.50;4.82;;;14.70;99.90;;;;;;6184685;23;20089;-86
2021/08/26 01:19:06;;;;;;;26.70;5.40;;;14.70;99.90;;;;;;6185322;23;20020;-86
2021/08/26 01:21:32;;;;;;;32.45;5.07;;;14.70;99.90;;;;;;6210040;23;20071;-85
2021/08/26 01:24:02;;;;;;;33.65;5.63;;;14.70;99.90;;;;;;6160437;23;20018;-85
2021/08/26 01:26:45;;;;;;;22.13;4.72;;;14.60;99.90;;;;;;6185394;23;20357;-86
2021/08/26 01:29:12;;;;;;;;;;;14.60;99.90;;;;;;6186337;23;20082;-86
2021/08/26 01:31:40;;;;;;;20.23;4.38;;;14.60;99.90;;;;;;6210222;23;19922;-86
2021/08/26 01:34:06;;;;;;;18.40;4.18;;;14.70;99.90;;;;;;6185392;23;20272;-85
2021/08/26 01:36:33;;;;;;;22.88;4.25;;;14.70;99.90;;;;;;6185661;23;20080;-87
2021/08/26 01:39:07;;;;;;;16.67;3.90;;;14.70;99.90;;;;;;6210715;23;20016;-85
2021/08/26 01:41:40;;;;;;;19.92;3.70;;;14.70;99.90;;;;;;6188020;23;20059;-85
2021/08/26 01:44:08;;;;;;;20.73;4.03;;;14.60;99.90;;;;;;6184643;23;20030;-86
2021/08/26 01:46:33;;;;;;;21.55;4.50;;;14.70;99.90;;;;;;6185793;23;20012;-85
2021/08/26 01:48:59;;;;;;;23.05;4.50;;;14.60;99.90;;;;;;6159988;23;20445;-87
2021/08/26 01:51:25;;;;;;;20.75;4.25;;;14.60;99.90;;;;;;6185347;23;20062;-88
2021/08/26 01:53:50;;;;;;;22.42;4.88;;;14.60;99.90;;;;;;6158949;23;20085;-86
2021/08/26 01:56:16;;;;;;;29.52;4.55;;;14.60;99.90;;;;;;6183464;23;20016;-85
2021/08/26 01:58:43;;;;;;;23.23;4.38;;;14.60;99.90;;;;;;6185394;23;20044;-86
2021/08/26 02:01:08;;;;;;;19.00;4.28;;;14.60;99.90;;;;;;6184993;23;20016;-85
2021/08/26 02:03:34;;;;;;;29.05;4.85;;;14.60;99.90;;;;;;6186151;23;20461;-86
2021/08/26 02:06:00;;;;;;;27.55;5.00;;;14.60;99.90;;;;;;6185272;23;20027;-86
2021/08/26 02:08:26;;;;;;;24.67;4.43;;;14.60;99.90;;;;;;6161094;23;20023;-85
2021/08/26 02:10:51;;;;;;;22.42;4.80;;;14.60;99.90;;;;;;6233239;23;20070;-85
2021/08/26 02:13:17;;;;;;;28.90;5.30;;;14.60;99.90;;;;;;6183556;23;20024;-85
2021/08/26 02:15:43;;;;;;;25.92;5.15;;;14.60;99.90;;;;;;6184877;23;20016;-85
2021/08/26 02:18:08;;;;;;;24.95;4.85;;;14.60;99.90;;;;;;6159486;23;20019;-85
2021/08/26 02:20:34;;;;;;;28.45;4.95;;;14.50;99.90;;;;;;6159868;23;20011;-90
2021/08/26 02:23:00;;;;;;;23.08;4.20;;;14.50;99.90;;;;;;6186098;23;20450;-85
2021/08/26 02:25:26;;;;;;;16.00;5.05;;;14.50;99.90;;;;;;6158890;23;20052;-86
2021/08/26 02:27:51;;;;;;;26.08;4.88;;;14.50;99.90;;;;;;6160015;23;20012;-88
2021/08/26 02:30:17;;;;;;;21.95;4.10;;;14.50;99.90;;;;;;6184666;23;20016;-85
2021/08/26 02:32:43;;;;;;;24.13;4.55;;;14.40;99.90;;;;;;6184719;23;20024;-85
2021/08/26 02:35:09;;;;;;;21.42;3.90;;;14.40;99.90;;;;;;6184687;23;20087;-86
2021/08/26 02:37:35;;;;;;;28.45;4.72;;;14.40;99.90;;;;;;6185874;23;20019;-86
2021/08/26 02:40:01;;;;;;;22.13;3.78;;;14.40;99.90;;;;;;6188291;23;20012;-85
2021/08/26 02:42:27;;;;;;;18.85;3.58;;;14.40;99.90;;;;;;6186294;23;20043;-85
2021/08/26 02:44:52;;;;;;;20.38;3.88;;;14.40;99.90;;;;;;6161855;23;20023;-86
2021/08/26 02:47:18;;;;;;;17.90;3.20;;;14.30;99.90;;;;;;6163142;23;20388;-85
2021/08/26 02:49:44;;;;;;;20.05;3.13;;;14.30;99.90;;;;;;6188127;23;20012;-84
2021/08/26 02:52:11;;;;;;;15.10;3.03;;;14.30;99.90;;;;;;6186110;23;20385;-86
2021/08/26 02:54:37;;;;;;;19.15;3.47;;;14.30;99.90;;;;;;6163371;23;20064;-87
2021/08/26 02:57:03;;;;;;;17.08;3.13;;;14.30;99.90;;;;;;6164044;23;20012;-87
2021/08/26 02:59:28;;;;;;;15.05;3.08;;;14.30;99.90;;;;;;6162900;23;20043;-84
2021/08/26 03:01:54;;;;;;;16.35;3.10;;;14.30;99.90;;;;;;6188241;23;20027;-84
2021/08/26 03:04:20;;;;;;;16.63;2.83;;;14.30;99.90;;;;;;6188352;23;20020;-86
2021/08/26 03:06:46;;;;;;;10.52;2.55;;;14.30;99.90;;;;;;6162139;23;20020;-86
2021/08/26 03:09:11;;;;;;;16.42;2.88;;;14.30;99.90;;;;;;6167606;23;20040;-86
2021/08/26 03:11:37;;;;;;;16.65;2.70;;;14.20;99.90;;;;;;6214878;23;20012;-89
2021/08/26 03:14:03;;;;;;;12.98;2.72;;;14.20;99.90;;;;;;6212555;23;20008;-84
2021/08/26 03:16:29;;;;;;;12.00;2.22;;;14.30;99.90;;;;;;6161202;23;20020;-84
2021/08/26 03:18:55;;;;;;;13.70;2.85;;;14.30;99.90;;;;;;6186892;23;20016;-87
2021/08/26 03:21:20;;;;;;;13.43;2.70;;;14.20;99.90;;;;;;6186584;23;20016;-87
2021/08/26 03:23:46;;;;;;;11.57;2.30;;;14.30;99.90;;;;;;6186740;23;20031;-84
2021/08/26 03:26:12;;;;;;;16.95;2.95;;;14.20;99.90;;;;;;6160985;23;20044;-84
2021/08/26 03:28:37;;;;;;;14.40;2.78;;;14.20;99.90;;;;;;6161548;23;20467;-85
2021/08/26 03:31:03;;;;;;;17.65;2.67;;;14.30;99.90;;;;;;6161098;23;20465;-88
2021/08/26 03:33:33;;;;;;;15.63;2.72;;;14.30;99.90;;;;;;6217904;23;20012;-86
2021/08/26 03:36:02;;;;;;;16.23;2.78;;;14.20;99.90;;;;;;6164501;23;20047;-86
2021/08/26 03:38:28;;;;;;;17.70;3.17;;;14.30;99.90;;;;;;6184624;23;20008;-86
2021/08/26 03:40:54;;;;;;;16.27;2.60;;;14.20;99.90;;;;;;6209882;23;20341;-89
2021/08/26 03:43:19;;;;;;;18.77;2.60;;;14.20;99.90;;;;;;6185531;23;20012;-87
2021/08/26 03:45:45;;;;;;;12.35;2.65;;;14.30;99.90;;;;;;6161298;23;20020;-85
2021/08/26 03:48:11;;;;;;;15.18;2.60;;;14.20;99.90;;;;;;6186259;23;20009;-88
2021/08/26 03:50:37;;;;;;;13.07;2.72;;;14.20;99.90;;;;;;6161223;23;20030;-86
2021/08/26 03:53:03;;;;;;;15.48;3.05;;;14.30;99.90;;;;;;6184575;23;20012;-86
2021/08/26 03:55:28;;;;;;;16.58;3.05;;;14.30;99.90;;;;;;6159950;23;20457;-86
2021/08/26 03:57:54;;;;;;;14.90;2.70;;;14.30;99.90;;;;;;6160807;23;20012;-85
2021/08/26 04:00:20;;;;;;;16.17;3.22;;;14.30;99.90;;;;;;6159097;23;20146;-86
2021/08/26 04:02:46;;;;;;;17.20;3.05;;;14.20;99.90;;;;;;6160753;23;20027;-86
2021/08/26 04:05:11;;;;;;;17.58;3.20;;;14.20;99.90;;;;;;6188753;23;20016;-87
2021/08/26 04:07:37;;;;;;;18.00;2.90;;;14.20;99.90;;;;;;6161011;23;20016;-85
2021/08/26 04:10:03;;;;;;;14.23;2.70;;;14.20;99.90;;;;;;6160407;23;20019;-85
2021/08/26 04:12:29;;;;;;;16.40;3.08;;;14.20;99.90;;;;;;6184137;23;20016;-85
2021/08/26 04:14:55;;;;;;;25.58;3.35;;;14.20;99.90;;;;;;6184302;23;20008;-85
2021/08/26 04:17:21;;;;;;;18.25;3.75;;;14.30;99.90;;;;;;6158992;23;20012;-85
2021/08/26 04:19:47;;;;;;;14.88;2.92;;;14.30;99.90;;;;;;6183680;23;20019;-87
2021/08/26 04:22:13;;;;;;;22.38;3.67;;;14.30;99.90;;;;;;6183425;23;20016;-86
2021/08/26 04:24:39;;;;;;;16.60;2.88;;;14.20;99.90;;;;;;6183069;23;20049;-85
2021/08/26 04:27:05;;;;;;;16.55;3.17;;;14.20;99.90;;;;;;6183443;23;20078;-88
2021/08/26 04:29:31;;;;;;;16.58;3.22;;;14.20;99.90;;;;;;6184592;23;20012;-89
2021/08/26 04:31:57;;;;;;;17.45;3.15;;;14.20;99.90;;;;;;6184292;23;20028;-86
2021/08/26 04:34:22;;;;;;;15.38;2.92;;;14.20;99.90;;;;;;6183415;23;20095;-85
2021/08/26 04:36:48;;;;;;;16.55;3.53;;;14.10;99.90;;;;;;6183987;23;20095;-85
2021/08/26 04:39:14;;;;;;;14.48;3.40;;;14.10;99.90;;;;;;6182813;23;20090;-85
2021/08/26 04:41:40;;;;;;;18.35;3.33;;;14.10;99.90;;;;;;6183760;23;20055;-88
2021/08/26 04:44:06;;;;;;;16.25;3.22;;;14.10;99.90;;;;;;6158817;23;20016;-86
2021/08/26 04:46:32;;;;;;;15.75;3.40;;;14.10;99.90;;;;;;6159911;23;20087;-88
2021/08/26 04:48:58;;;;;;;19.67;3.03;;;14.00;99.90;;;;;;6182844;23;20113;-86
2021/08/26 04:51:24;;;;;;;20.00;3.75;;;14.00;99.90;;;;;;6157005;23;20023;-87
2021/08/26 04:53:50;;;;;;;18.08;3.55;;;14.00;99.90;;;;;;6158380;23;20020;-88
2021/08/26 04:56:15;;;;;;;18.17;3.58;;;14.00;99.90;;;;;;6157838;23;20063;-88
2021/08/26 04:58:42;;;;;;;16.00;2.92;;;14.00;99.90;;;;;;6158367;23;20016;-86
2021/08/26 05:01:07;;;;;;;16.08;3.30;;;14.00;99.90;;;;;;6183036;23;20428;-88
2021/08/26 05:03:33;;;;;;;14.50;3.10;;;14.00;99.90;;;;;;6157822;23;20074;-86
2021/08/26 05:06:03;;;;;;;19.60;3.10;;;14.00;99.90;;;;;;6183726;23;20023;-89
2021/08/26 05:08:29;;;;;;;16.77;3.80;;;14.00;99.90;;;;;;6183486;23;20100;-86
2021/08/26 05:10:54;;;;;;;20.90;4.00;;;14.10;99.90;;;;;;6153794;23;20095;-88
2021/08/26 05:13:20;;;;;;;19.33;3.72;;;14.10;99.90;;;;;;6156423;23;20027;-89
2021/08/26 05:15:46;;;;;;;19.80;3.75;;;14.10;99.90;;;;;;6157356;23;20020;-88
2021/08/26 05:18:12;;;;;;;18.77;4.32;;;14.10;99.90;;;;;;6157607;23;20539;-85
2021/08/26 05:20:37;;;;;;;19.20;3.05;;;14.10;99.90;;;;;;6182218;23;20020;-86
2021/08/26 05:23:03;;;;;;;18.77;4.00;;;14.20;99.90;;;;;;6159030;23;20027;-87
2021/08/26 05:25:29;;;;;;;18.15;3.70;;;14.20;99.90;;;;;;6183361;23;20019;-86
2021/08/26 05:27:55;;;;;;;20.98;4.60;;;14.20;99.90;;;;;;6183121;23;20460;-86
2021/08/26 05:30:21;;;;;;;21.27;3.78;;;14.30;99.90;;;;;;6183559;23;20020;-87
2021/08/26 05:32:48;;;;;;;19.95;4.00;;;14.30;99.90;;;;;;6189955;23;20023;-89
2021/08/26 05:35:14;;;;;;;20.27;3.80;;;14.30;99.90;;;;;;6162052;23;20012;-85
2021/08/26 05:37:40;;;;;;;18.50;4.43;;;14.40;99.90;;;;;;6184491;23;20015;-87
2021/08/26 05:40:06;;;;;;;18.48;3.80;;;14.40;99.90;;;;;;6184352;23;20406;-87
2021/08/26 05:42:33;;;;;;;17.80;4.28;;;14.40;99.90;;;;;;6185736;23;20086;-87
2021/08/26 05:44:58;;;;;;;24.77;4.28;;;14.40;99.90;;;;;;6184896;23;20027;-89
2021/08/26 05:47:27;;;;;;;22.02;4.20;;;14.40;99.90;;;;;;6161393;23;20020;-87
2021/08/26 05:49:52;;;;;;;17.42;4.28;;;14.40;99.90;;;;;;6160840;23;20047;-87
2021/08/26 05:52:18;;;;;;;14.18;3.58;;;14.50;99.90;;;;;;6160505;23;20020;-90
2021/08/26 05:54:44;;;;;;;15.20;3.80;;;14.50;99.90;;;;;;6185997;23;20009;-88
2021/08/26 05:57:09;;;;;;;22.42;4.63;;;14.50;99.90;;;;;;6161664;23;20024;-86
2021/08/26 05:59:35;;;;;;;18.42;4.30;;;14.50;99.90;;;;;;6185405;23;20016;-86
2021/08/26 06:02:01;;;;;;;25.27;4.45;;;14.60;99.90;;;;;;6185621;23;20530;-89
2021/08/26 06:04:27;;;;;;;19.00;3.78;;;14.60;99.90;;;;;;6185200;23;20016;-88
2021/08/26 06:06:53;;;;;;;21.52;4.35;;;14.60;99.90;;;;;;6208286;23;20020;-85
2021/08/26 06:09:19;;;;;;;23.05;4.72;;;14.60;99.90;;;;;;6183981;23;20020;-85
2021/08/26 06:11:44;;;;;;;30.38;4.93;;;14.70;99.90;;;;;;6158954;23;20484;-85
2021/08/26 06:14:11;;;;;;;21.48;4.82;;;14.70;99.90;;;;;;6157725;23;20019;-85
2021/08/26 06:16:37;;;;;;;26.90;5.18;;;14.70;99.90;;;;;;6183333;23;20012;-85
2021/08/26 06:19:05;;;;;;;25.65;4.60;;;14.80;99.90;;;;;;6186529;23;20146;-87
2021/08/26 06:21:32;;;;;;;19.75;4.75;;;14.80;99.90;;;;;;6188743;23;20012;-86
2021/08/26 06:23:58;;;;;;;26.85;4.40;;;14.90;99.90;;;;;;6188317;23;20012;-86
2021/08/26 06:26:25;;;;;;;25.95;5.88;;;14.90;99.90;;;;;;6182749;23;20490;-86
2021/08/26 06:28:51;;;;;;;24.60;5.60;;;15.00;99.90;;;;;;6182899;23;20012;-86
2021/08/26 06:31:16;;;;;;;24.15;5.45;;;15.00;99.90;;;;;;6181813;23;20020;-86
2021/08/26 06:33:44;;;;;;;26.73;5.18;;;15.10;99.90;;;;;;6179029;23;20151;-85
2021/08/26 06:36:09;;;;;;;25.08;5.30;;;15.10;99.90;;;;;;6178667;23;20094;-85
2021/08/26 06:38:35;;;;;;;25.05;5.60;;;15.20;99.90;;;;;;6155146;23;20055;-86
2021/08/26 06:41:02;;;;;;;24.15;5.32;;;15.20;99.90;;;;;;6180132;23;20067;-85
2021/08/26 06:43:29;;;;;;;25.10;5.15;;;15.30;99.90;;;;;;6206048;23;20035;-85
2021/08/26 06:45:57;;;;;;;27.27;5.70;;;15.30;99.90;;;;;;6179561;23;20012;-86
2021/08/26 06:48:23;;;;;;;27.42;5.50;;;15.40;99.90;;;;;;6156734;23;20336;-85
2021/08/26 06:50:53;;;;;;;27.23;5.72;;;15.40;99.90;;;;;;6157847;23;20040;-86
2021/08/26 06:53:20;;;;;;;33.78;5.60;;;15.50;99.90;;;;;;6182478;23;20016;-88
2021/08/26 06:55:45;;;;;;;30.70;5.60;;;15.60;99.90;;;;;;6181850;23;20016;-85
2021/08/26 06:58:11;;;;;;;28.30;5.53;;;15.60;99.90;;;;;;6181011;23;20285;-86
2021/08/26 07:00:39;;;;;;;31.67;5.88;;;15.70;99.90;;;;;;6181578;23;20091;-85
2021/08/26 07:03:05;;;;;;;31.92;5.50;;;15.70;99.90;;;;;;6157522;23;20020;-86
2021/08/26 07:05:31;;;;;;;39.03;6.30;;;15.80;99.90;;;;;;6179882;23;20066;-85
2021/08/26 07:07:57;;;;;;;24.83;5.70;;;15.90;99.90;;;;;;6178236;23;20116;-85
2021/08/26 07:10:25;;;;;;;31.98;5.97;;;15.90;99.90;;;;;;6181606;23;20012;-85
2021/08/26 07:12:52;;;;;;;29.50;5.90;;;16.00;99.90;;;;;;6185792;23;20016;-86
2021/08/26 07:15:24;;;;;;;28.45;6.78;;;16.10;99.90;;;;;;6184054;23;20065;-86
2021/08/26 07:17:50;;;;;;;29.35;5.78;;;16.10;99.90;;;;;;6208047;23;20044;-85
2021/08/26 07:20:16;;;;;;;39.35;6.63;;;16.20;99.90;;;;;;6181458;23;20015;-85
2021/08/26 07:22:41;;;;;;;32.10;6.05;;;16.20;99.90;;;;;;6182917;23;20095;-84
2021/08/26 07:25:08;;;;;;;32.20;6.93;;;16.30;99.90;;;;;;6156860;23;20173;-85
2021/08/26 07:27:33;;;;;;;26.02;5.82;;;16.30;99.90;;;;;;6207435;23;20016;-85
2021/08/26 07:30:00;;;;;;;32.15;5.68;;;16.50;99.90;;;;;;6154814;23;20043;-85
2021/08/26 07:32:26;;;;;;;32.30;5.82;;;16.50;99.90;;;;;;6182694;23;20020;-86
2021/08/26 07:34:52;;;;;;;33.47;6.53;;;16.60;99.90;;;;;;6179910;23;20012;-85
2021/08/26 07:37:25;;;;;;;32.05;6.30;;;16.60;99.90;;;;;;6156258;23;20293;-86
2021/08/26 07:40:11;;;;;;;35.38;7.13;;;16.70;99.90;;;;;;6179061;23;20095;-86
2021/08/26 07:42:38;;;;;;;26.67;5.93;;;16.80;99.90;;;;;;6180893;23;20044;-85
2021/08/26 07:45:06;;;;;;;32.88;5.60;;;16.90;99.90;;;;;;6181341;23;20016;-87
2021/08/26 07:47:35;;;;;;;33.97;6.60;;;16.90;99.90;;;;;;6182526;23;20043;-86
2021/08/26 07:50:01;;;;;;;30.67;6.25;;;17.00;99.90;;;;;;6180893;23;20016;-85
2021/08/26 07:52:26;;;;;;;38.38;7.15;;;17.10;99.90;;;;;;6181938;23;20070;-86
2021/08/26 07:54:52;;;;;;;42.15;6.78;;;17.10;99.90;;;;;;6180118;23;20008;-88
2021/08/26 07:57:18;;;;;;;30.33;6.07;;;17.20;99.90;;;;;;6181756;23;20066;-87
2021/08/26 07:59:44;;;;;;;28.55;5.38;;;17.30;99.90;;;;;;6182247;23;20464;-87
2021/08/26 08:02:12;;;;;;;32.38;6.35;;;17.30;99.90;;;;;;6204932;23;20032;-86
2021/08/26 08:04:38;;;;;;;30.70;6.43;;;17.30;99.90;;;;;;6156405;23;20047;-86
2021/08/26 08:07:04;;;;;;;31.98;6.32;;;17.30;99.90;;;;;;6181891;23;20016;-87
2021/08/26 08:09:30;;;;;;;26.27;6.00;;;17.40;99.90;;;;;;6155686;23;20567;-87
2021/08/26 08:12:14;;;;;;;32.05;5.85;;;17.40;99.90;;;;;;6182619;23;20055;-86
2021/08/26 08:14:52;;;;;;;33.28;5.93;;;17.40;99.70;;;;;;6159942;23;20016;-86
2021/08/26 08:17:18;;;;;;;27.52;6.35;;;17.40;99.80;;;;;;6181148;23;20019;-87
2021/08/26 08:19:44;;;;;;;25.55;6.22;;;17.40;99.80;;;;;;6178250;23;20453;-85
2021/08/26 08:22:09;;;;;;;28.08;5.65;;;17.50;99.80;;;;;;6181268;23;20408;-86
2021/08/26 08:24:37;;;;;;;29.95;6.10;;;17.50;99.70;;;;;;6181426;23;20028;-86
2021/08/26 08:27:03;;;;;;;35.17;6.70;;;17.60;99.60;;;;;;6156440;23;20015;-87
2021/08/26 08:29:29;;;;;;;26.95;5.75;;;17.60;99.50;;;;;;6155485;23;20780;-86
2021/08/26 08:31:55;;;;;;;28.40;5.80;;;17.60;99.60;;;;;;6204138;23;20017;-87
2021/08/26 08:34:21;;;;;;;36.20;5.93;;;17.60;99.70;;;;;;6155434;23;20023;-87
2021/08/26 08:36:57;;;;;;;30.10;6.13;;;17.50;99.70;;;;;;6154305;23;20345;-88
2021/08/26 08:39:23;;;;;;;30.50;5.72;;;17.60;99.40;;;;;;6180641;23;20255;-87
2021/08/26 08:41:49;;;;;;;23.75;5.78;;;17.60;99.30;;;;;;6178771;23;20335;-87
2021/08/26 08:44:15;;;;;;;32.60;5.93;;;17.60;99.10;;;;;;6179670;23;20016;-86
2021/08/26 08:46:47;;;;;;;29.15;5.68;;;17.70;99.10;;;;;;6180319;23;20022;-86
2021/08/26 08:49:14;;;;;;;27.70;5.28;;;17.70;99.00;;;;;;6180853;23;20020;-86
2021/08/26 08:51:41;;;;;;;23.80;4.93;;;17.80;98.80;;;;;;6179664;23;20410;-86
2021/08/26 08:57:06;;;;;;;32.72;5.57;;;18.00;98.20;;;;;;6263598;22;20522;-86
2021/08/26 08:59:53;;;;;;;24.20;4.82;;;18.00;97.90;;;;;;6116670;23;20099;-86
2021/08/26 09:03:05;;;;;;;25.25;5.10;;;18.10;97.60;;;;;;6104358;23;20023;-87
2021/08/26 09:05:54;;;;;;;24.75;5.20;;;18.10;97.30;;;;;;6204769;23;20331;-84
2021/08/26 09:08:22;;;;;;;25.17;4.80;;;18.20;97.00;;;;;;6185483;23;20052;-85
2021/08/26 09:10:54;;;;;;;18.83;4.82;;;18.30;97.00;;;;;;6187092;23;20016;-85
2021/08/26 09:13:33;;;;;;;24.48;4.72;;;18.30;96.80;;;;;;6162885;23;20024;-88
2021/08/26 09:16:00;;;;;;;25.60;5.35;;;18.40;96.70;;;;;;6188505;23;20012;-86
2021/08/26 09:18:29;;;;;;;29.67;6.15;;;18.50;96.70;;;;;;6159988;23;20016;-88
2021/08/26 09:21:01;;;;;;;24.13;5.82;;;18.50;96.50;;;;;;6184524;23;20019;-90
2021/08/26 09:23:28;;;;;;;;;;;18.60;96.60;;;;;;6184931;23;20012;-86
2021/08/26 09:26:17;;;;;;;28.83;5.38;;;18.60;96.80;;;;;;6186854;23;19912;-86
2021/08/26 09:28:44;;;;;;;23.80;5.28;;;18.60;96.80;;;;;;6183659;23;20077;-87
2021/08/26 09:31:28;;;;;;;24.58;5.03;;;18.60;96.40;;;;;;6185078;23;20016;-87
2021/08/26 09:34:13;;;;;;;22.60;5.00;;;18.70;96.70;;;;;;6182682;23;20008;-87
2021/08/26 09:36:48;;;;;;;29.05;5.63;;;18.80;96.10;;;;;;6182784;23;20015;-84
2021/08/26 09:39:18;;;;;;;25.50;5.53;;;18.90;95.90;;;;;;6234321;23;20008;-88
2021/08/26 09:41:49;;;;;;;20.50;4.93;;;18.90;95.90;;;;;;6184309;23;20105;-85
2021/08/26 09:44:23;;;;;;;19.20;4.67;;;18.90;95.80;;;;;;6182617;23;20019;-86
2021/08/26 09:46:54;;;;;;;17.42;4.25;;;18.90;95.70;;;;;;6185785;23;20334;-89
2021/08/26 09:49:31;;;;;;;21.73;4.38;;;18.80;95.50;;;;;;6160395;23;20028;-87
2021/08/26 09:52:06;;;;;;;24.48;4.63;;;18.90;95.30;;;;;;6184440;23;20023;-90
2021/08/26 09:54:45;;;;;;;24.05;4.35;;;18.90;95.30;;;;;;6183767;23;20047;-87
2021/08/26 09:57:39;;;;;;;23.40;4.40;;;19.00;95.40;;;;;;6181444;23;20102;-89
2021/08/26 10:00:05;;;;;;;20.27;4.68;;;19.00;95.30;;;;;;6183033;23;20023;-85
2021/08/26 10:02:32;;;;;;;21.67;5.20;;;19.10;95.10;;;;;;6184828;23;20077;-86
2021/08/26 10:04:58;;;;;;;19.85;4.70;;;19.20;94.30;;;;;;6185812;23;20016;-89
2021/08/26 10:07:28;;;;;;;28.48;5.07;;;19.20;94.50;;;;;;6185290;23;20023;-87
2021/08/26 10:09:54;;;;;;;22.45;4.78;;;19.30;94.20;;;;;;6183298;23;20018;-85
2021/08/26 10:12:20;;;;;;;23.98;4.72;;;19.40;93.90;;;;;;6184924;23;20016;-87
2021/08/26 10:14:49;;;;;;;20.20;4.47;;;19.50;93.90;;;;;;6185860;23;20043;-86
2021/08/26 10:21:10;;;;;;;18.00;4.18;;;19.50;93.40;;;;;;6120125;23;20017;-87
2021/08/26 10:23:45;;;;;;;21.73;4.38;;;19.40;92.80;;;;;;6117373;23;20367;-88
2021/08/26 10:26:15;;;;;;;18.27;4.53;;;19.30;92.80;;;;;;6044466;23;20021;-88
2021/08/26 10:28:44;;;;;;;16.40;4.43;;;19.40;92.60;;;;;;6093471;23;20013;-86
2021/08/26 10:31:27;;;;;;;18.55;4.45;;;19.40;92.70;;;;;;6093378;23;20022;-89
2021/08/26 10:34:14;;;;;;;19.27;4.25;;;19.50;92.30;;;;;;6070534;23;20132;-89
2021/08/26 10:36:55;;;;;;;17.67;4.45;;;19.60;92.40;;;;;;6095212;23;20117;-88
2021/08/26 10:39:34;;;;;;;22.33;4.38;;;19.60;92.20;;;;;;6119415;23;20048;-86
2021/08/26 10:42:29;;;;;;;23.83;4.70;;;19.60;92.70;;;;;;6094951;23;20052;-88
2021/08/26 10:45:07;;;;;;;21.00;4.93;;;19.50;92.80;;;;;;6100030;23;20096;-87
2021/08/26 10:47:52;;;;;;;28.02;5.00;;;19.50;92.90;;;;;;6098528;23;20107;-89
2021/08/26 10:50:35;;;;;;;26.30;5.25;;;19.40;93.10;;;;;;6096980;23;20018;-89
2021/08/26 10:53:07;;;;;;;17.67;4.72;;;19.40;93.10;;;;;;6093961;23;20024;-89
2021/08/26 10:55:47;;;;;;;19.10;4.75;;;19.40;93.10;;;;;;6094448;23;20025;-87
2021/08/26 10:58:21;;;;;;;27.05;5.32;;;19.40;92.90;;;;;;6093490;23;20347;-86
2021/08/26 11:01:00;;;;;;;23.42;4.90;;;19.40;93.10;;;;;;6093485;23;20045;-86
2021/08/26 11:03:36;;;;;;;17.85;5.03;;;19.40;93.70;;;;;;6117698;23;20733;-87
2021/08/26 11:06:24;;;;;;;20.58;5.03;;;19.30;94.00;;;;;;6182164;23;20012;-89
2021/08/26 11:09:20;;;;;;;22.42;5.13;;;19.20;94.40;;;;;;6183673;23;20090;-90
2021/08/26 11:12:10;;;;;;;19.27;4.80;;;19.10;95.00;;;;;;6184663;23;20016;-89
2021/08/26 11:14:46;;;;;;;24.60;5.28;;;19.10;95.60;;;;;;6192518;23;20399;-90
2021/08/26 11:17:45;;;;;;;18.45;5.18;;;19.00;96.10;;;;;;6183807;23;20475;-88
2021/08/26 11:20:51;;;;;;;24.52;5.75;;;19.00;96.30;;;;;;6152040;23;20008;-90
2021/08/26 11:23:18;;;;;;;28.38;5.70;;;19.10;96.50;;;;;;6183042;23;20255;-87
2021/08/26 11:25:54;;;;;;;21.55;5.60;;;19.00;96.50;;;;;;6157318;23;20047;-88
2021/08/26 11:28:39;;;;;;;27.83;6.82;;;19.10;96.70;;;;;;6176059;23;20305;-89
2021/08/26 11:31:37;;;;;;;21.95;4.38;;;19.10;96.30;;;;;;6158958;23;20279;-88
2021/08/26 11:34:04;;;;;;;20.92;4.32;;;19.20;96.20;;;;;;6208826;23;20012;-91
2021/08/26 11:36:30;;;;;;;24.52;5.00;;;19.30;96.30;;;;;;6185126;23;20020;-91
2021/08/26 11:39:16;;;;;;;18.58;4.35;;;19.40;96.10;;;;;;6184779;23;20041;-88
2021/08/26 11:41:42;;;;;;;23.77;4.35;;;19.50;95.60;;;;;;6207066;23;20488;-88
2021/08/26 11:44:31;;;;;;;24.83;5.07;;;19.50;94.90;;;;;;6132390;23;20023;-87
2021/08/26 11:46:59;;;;;;;18.30;3.47;;;19.40;95.00;;;;;;6182607;23;20016;-87
2021/08/26 11:49:39;;;;;;;21.10;3.72;;;19.30;95.30;;;;;;6160281;23;20023;-87
2021/08/26 11:52:18;;;;;;;17.15;3.25;;;19.20;95.00;;;;;;6181229;23;20016;-87
2021/08/26 11:54:54;;;;;;;12.48;2.97;;;19.20;94.90;;;;;;6182866;23;20019;-89
2021/08/26 11:57:23;;;;;;;17.20;2.38;;;19.20;94.90;;;;;;6181927;23;20019;-88
2021/08/26 11:59:52;;;;;;;10.88;2.05;;;19.30;94.50;;;;;;6158934;23;20016;-87
2021/08/26 12:02:23;;;;;;;7.65;1.35;;;19.30;93.90;;;;;;6158872;23;20019;-88
2021/08/26 12:04:55;;;;;;;7.07;1.27;;;19.40;92.20;;;;;;6181455;23;20016;-87
2021/08/26 12:07:26;;;;;;;12.68;1.20;;;19.50;91.30;;;;;;6209990;23;20020;-89
2021/08/26 12:09:53;;;;;;;6.30;1.13;;;19.50;91.20;;;;;;6184576;23;20016;-85
2021/08/26 12:12:19;;;;;;;3.90;1.08;;;19.60;91.10;;;;;;6160766;23;20405;-88
2021/08/26 12:14:45;;;;;;;4.88;1.52;;;19.70;90.70;;;;;;6135472;23;20012;-83
2021/08/26 12:17:13;;;;;;;7.57;0.95;;;19.60;90.20;;;;;;6158750;23;20012;-84
2021/08/26 12:19:40;;;;;;;5.38;0.90;;;19.70;86.60;;;;;;6186229;23;20094;-88
2021/08/26 12:22:06;;;;;;;5.85;1.10;;;19.80;87.70;;;;;;6182856;23;20268;-85
2021/08/26 12:24:32;;;;;;;8.05;1.00;;;19.80;86.50;;;;;;6182863;23;20019;-87
2021/08/26 12:27:09;;;;;;;3.33;0.80;;;19.80;85.20;;;;;;6157576;23;20299;-88
2021/08/26 12:29:47;;;;;;;5.78;1.00;;;19.80;84.00;;;;;;6156602;23;20063;-84
2021/08/26 12:32:33;;;;;;;2.95;0.85;;;19.70;83.80;;;;;;6181207;23;20521;-87
2021/08/26 12:35:25;;;;;;;3.72;0.85;;;19.50;81.20;;;;;;6177794;23;20016;-84
2021/08/26 12:38:00;;;;;;;3.80;0.73;;;19.40;80.80;;;;;;6174214;23;20019;-88
2021/08/26 12:40:47;;;;;;;3.38;0.90;;;19.20;82.80;;;;;;6180487;23;20009;-86
2021/08/26 12:43:14;;;;;;;4.88;0.90;;;19.20;83.60;;;;;;6205242;23;20016;-86
2021/08/26 12:45:43;;;;;;;9.32;1.23;;;19.30;85.20;;;;;;6178924;23;20024;-91
2021/08/26 12:48:29;;;;;;;6.03;1.33;;;19.40;85.90;;;;;;6181533;23;20020;-88
2021/08/26 12:51:07;;;;;;;7.63;1.40;;;19.40;85.70;;;;;;6179468;23;20433;-87
2021/08/26 12:53:33;;;;;;;6.38;1.17;;;19.40;86.40;;;;;;6177155;23;20446;-90
2021/08/26 12:56:08;;;;;;;6.55;1.00;;;19.30;85.60;;;;;;6206172;23;20031;-86
2021/08/26 12:58:35;;;;;;;6.03;0.88;;;19.30;87.50;;;;;;6182230;23;20252;-83
2021/08/26 13:01:23;;;;;;;8.25;0.98;;;19.40;86.50;;;;;;6132623;23;20008;-86
2021/08/26 13:03:51;;;;;;;3.95;0.70;;;19.30;81.30;;;;;;6180568;23;20008;-88